createdAt,value
2022-11-14T00:02:11.263Z,14.38
2022-11-14T00:04:57.168Z,14.25
2022-11-14T00:07:43.132Z,14.05
2022-11-14T00:10:29.194Z,14.12
2022-11-14T00:13:16.042Z,14.07
2022-11-14T00:16:01.648Z,14.46
2022-11-14T00:18:47.732Z,14.46
2022-11-14T00:21:34.064Z,14.42
2022-11-14T00:24:20.576Z,14.33
2022-11-14T00:27:06.574Z,14.16
2022-11-14T00:29:52.793Z,14.26
2022-11-14T00:32:38.587Z,14.37
2022-11-14T00:35:24.080Z,14.21
2022-11-14T00:38:09.763Z,13.94
2022-11-14T00:40:55.948Z,14.16
2022-11-14T00:43:42.048Z,14.03
2022-11-14T00:46:28.077Z,14.66
2022-11-14T00:49:14.070Z,14.54
2022-11-14T00:51:59.756Z,14.53
2022-11-14T00:54:45.158Z,13.90
2022-11-14T00:57:30.949Z,14.09
2022-11-14T01:00:16.615Z,14.11
2022-11-14T01:03:02.610Z,14.54
2022-11-14T01:05:51.522Z,14.74
2022-11-14T01:08:37.512Z,14.59
2022-11-14T01:11:23.850Z,14.46
2022-11-14T01:14:09.823Z,14.40
2022-11-14T01:16:55.799Z,14.44
2022-11-14T01:19:41.480Z,14.47
2022-11-14T01:22:27.491Z,14.73
2022-11-14T01:25:13.607Z,14.53
2022-11-14T01:27:59.749Z,14.54
2022-11-14T01:30:45.887Z,14.43
2022-11-14T01:33:32.106Z,14.38
2022-11-14T01:36:18.588Z,14.37
2022-11-14T01:39:04.657Z,14.56
2022-11-14T01:41:50.477Z,14.53
2022-11-14T01:44:54.938Z,14.88
2022-11-14T01:47:40.703Z,14.47
2022-11-14T01:50:28.504Z,14.53
2022-11-14T01:53:14.456Z,14.38
2022-11-14T01:56:05.610Z,14.58
2022-11-14T01:59:01.526Z,14.58
2022-11-14T02:01:50.221Z,14.40
2022-11-14T02:04:40.257Z,14.48
2022-11-14T02:07:29.468Z,14.47
2022-11-14T02:10:21.189Z,14.29
2022-11-14T02:13:07.499Z,14.13
2022-11-14T02:15:53.780Z,14.22
2022-11-14T02:18:42.493Z,14.48
2022-11-14T02:21:27.943Z,14.08
2022-11-14T02:24:14.339Z,14.14
2022-11-14T02:27:00.613Z,14.11
2022-11-14T02:29:46.543Z,13.92
2022-11-14T02:32:45.106Z,13.98
2022-11-14T02:35:37.988Z,14.06
2022-11-14T02:38:23.888Z,14.00
2022-11-14T02:41:09.733Z,13.84
2022-11-14T02:43:55.421Z,13.76
2022-11-14T02:46:41.544Z,13.80
2022-11-14T02:49:27.580Z,13.83
2022-11-14T02:52:13.515Z,13.93
2022-11-14T02:54:59.621Z,13.78
2022-11-14T02:57:45.101Z,13.57
2022-11-14T03:00:31.113Z,13.72
2022-11-14T03:03:16.909Z,13.73
2022-11-14T03:06:06.872Z,13.85
2022-11-14T03:08:52.927Z,13.49
2022-11-14T03:11:39.534Z,13.94
2022-11-14T03:14:25.180Z,13.56
2022-11-14T03:17:11.447Z,14.05
2022-11-14T03:19:58.003Z,13.66
2022-11-14T03:22:43.398Z,13.56
2022-11-14T03:25:29.251Z,13.88
2022-11-14T03:28:14.867Z,13.59
2022-11-14T03:31:00.221Z,13.76
2022-11-14T03:33:45.611Z,13.62
2022-11-14T03:36:31.856Z,13.54
2022-11-14T03:39:18.069Z,13.55
2022-11-14T03:42:03.912Z,13.65
2022-11-14T03:44:49.757Z,13.58
2022-11-14T03:47:35.549Z,13.53
2022-11-14T03:50:21.295Z,13.58
2022-11-14T03:53:07.635Z,13.73
2022-11-14T03:55:53.385Z,13.51
2022-11-14T03:58:38.981Z,13.45
2022-11-14T04:01:24.827Z,13.55
2022-11-14T04:04:12.715Z,13.52
2022-11-14T04:06:58.459Z,13.19
2022-11-14T04:09:47.070Z,13.57
2022-11-14T04:12:33.061Z,13.48
2022-11-14T04:15:20.028Z,13.07
2022-11-14T04:18:06.087Z,13.63
2022-11-14T04:20:52.470Z,13.42
2022-11-14T04:23:37.889Z,13.20
2022-11-14T04:26:23.379Z,12.90
2022-11-14T04:29:08.715Z,13.63
2022-11-14T04:31:54.205Z,13.59
2022-11-14T04:34:39.777Z,13.44
2022-11-14T04:37:25.470Z,13.54
2022-11-14T04:40:11.767Z,13.08
2022-11-14T04:42:57.086Z,13.53
2022-11-14T04:45:42.895Z,13.53
2022-11-14T04:48:28.762Z,12.73
2022-11-14T04:51:14.411Z,13.34
2022-11-14T04:53:59.833Z,13.44
2022-11-14T04:56:45.011Z,13.46
2022-11-14T04:59:30.463Z,13.34
2022-11-14T05:02:15.796Z,13.44
2022-11-14T05:05:01.778Z,13.51
2022-11-14T05:07:47.066Z,13.38
2022-11-14T05:10:32.580Z,13.33
2022-11-14T05:13:18.076Z,13.38
2022-11-14T05:16:03.403Z,13.25
2022-11-14T05:18:49.056Z,12.66
2022-11-14T05:21:34.860Z,12.96
2022-11-14T05:24:20.632Z,12.86
2022-11-14T05:27:06.804Z,13.34
2022-11-14T05:29:52.404Z,13.20
2022-11-14T05:32:37.866Z,13.17
2022-11-14T05:35:23.345Z,13.15
2022-11-14T05:38:09.058Z,13.15
2022-11-14T05:40:54.666Z,13.23
2022-11-14T05:43:40.952Z,13.27
2022-11-14T05:46:26.493Z,13.11
2022-11-14T05:49:12.090Z,13.24
2022-11-14T05:51:57.410Z,13.23
2022-11-14T05:54:42.753Z,13.27
2022-11-14T05:57:28.632Z,13.11
2022-11-14T06:00:15.072Z,12.78
2022-11-14T06:03:00.706Z,13.02
2022-11-14T06:05:45.943Z,12.91
2022-11-14T06:08:32.897Z,13.44
2022-11-14T06:11:20.930Z,13.33
2022-11-14T06:14:10.593Z,13.38
2022-11-14T06:16:57.144Z,13.34
2022-11-14T06:19:42.847Z,13.21
2022-11-14T06:22:28.244Z,13.11
2022-11-14T06:25:13.806Z,13.15
2022-11-14T06:27:59.878Z,13.31
2022-11-14T06:30:45.319Z,13.29
2022-11-14T06:33:35.564Z,13.49
2022-11-14T06:36:21.451Z,13.41
2022-11-14T06:39:07.469Z,13.51
2022-11-14T06:41:53.440Z,13.43
2022-11-14T06:44:39.536Z,13.19
2022-11-14T06:47:25.106Z,13.09
2022-11-14T06:50:13.555Z,13.29
2022-11-14T06:52:59.469Z,13.27
2022-11-14T06:55:57.291Z,13.49
2022-11-14T06:58:46.314Z,13.35
2022-11-14T07:01:32.026Z,13.27
2022-11-14T07:04:17.942Z,13.30
2022-11-14T07:07:03.754Z,13.38
2022-11-14T07:09:49.695Z,13.40
2022-11-14T07:12:35.826Z,13.35
2022-11-14T07:15:21.451Z,13.19
2022-11-14T07:18:10.410Z,13.00
2022-11-14T07:21:04.359Z,13.40
2022-11-14T07:23:50.808Z,13.11
2022-11-14T07:26:36.915Z,13.38
2022-11-14T07:29:22.858Z,13.24
2022-11-14T07:32:08.840Z,13.31
2022-11-14T07:35:00.792Z,13.47
2022-11-14T07:37:50.580Z,13.21
2022-11-14T07:40:36.948Z,13.25
2022-11-14T07:43:22.826Z,13.20
2022-11-14T07:46:11.192Z,12.93
2022-11-14T07:48:56.887Z,13.33
2022-11-14T07:51:42.461Z,13.25
2022-11-14T07:54:28.331Z,13.40
2022-11-14T07:57:14.377Z,13.46
2022-11-14T08:00:00.497Z,13.48
2022-11-14T08:02:47.216Z,13.48
2022-11-14T08:05:32.720Z,13.27
2022-11-14T08:08:18.542Z,13.38
2022-11-14T08:11:04.689Z,13.60
2022-11-14T08:13:50.732Z,13.60
2022-11-14T08:16:36.954Z,13.50
2022-11-14T08:19:22.512Z,13.47
2022-11-14T08:22:08.611Z,13.60
2022-11-14T08:24:54.611Z,13.39
2022-11-14T08:27:39.953Z,13.20
2022-11-14T08:30:26.300Z,13.64
2022-11-14T08:33:12.702Z,13.32
2022-11-14T08:36:07.147Z,13.88
2022-11-14T08:38:57.495Z,13.80
2022-11-14T08:41:46.359Z,13.88
2022-11-14T08:44:31.949Z,14.29
2022-11-14T08:47:17.656Z,13.92
2022-11-14T08:50:03.546Z,13.98
2022-11-14T08:52:52.352Z,14.32
2022-11-14T08:55:38.073Z,14.03
2022-11-14T08:58:23.960Z,14.32
2022-11-14T09:01:10.542Z,14.55
2022-11-14T09:03:59.856Z,14.19
2022-11-14T09:06:46.408Z,13.77
2022-11-14T09:09:32.677Z,13.88
2022-11-14T09:12:18.513Z,13.93
2022-11-14T09:15:04.269Z,14.36
2022-11-14T09:17:54.341Z,13.86
2022-11-14T09:20:40.545Z,13.66
2022-11-14T09:23:26.067Z,13.46
2022-11-14T09:26:12.490Z,13.64
2022-11-14T09:28:57.934Z,13.73
2022-11-14T09:31:43.982Z,13.61
2022-11-14T09:34:29.835Z,14.06
2022-11-14T09:37:16.134Z,13.90
2022-11-14T09:40:03.624Z,14.06
2022-11-14T09:42:59.517Z,14.00
2022-11-14T09:45:51.111Z,14.32
2022-11-14T09:48:36.827Z,13.50
2022-11-14T09:51:25.700Z,13.84
2022-11-14T09:54:27.139Z,13.68
2022-11-14T09:57:19.785Z,14.01
2022-11-14T10:00:21.075Z,14.67
2022-11-14T10:03:52.536Z,15.12
2022-11-14T10:07:08.767Z,14.83
2022-11-14T10:10:26.537Z,15.38
2022-11-14T10:13:31.514Z,15.35
2022-11-14T10:16:42.279Z,15.30
2022-11-14T10:20:16.449Z,14.85
2022-11-14T10:23:27.909Z,14.20
2022-11-14T10:26:32.448Z,14.07
2022-11-14T10:29:33.325Z,14.25
2022-11-14T10:32:35.989Z,14.60
2022-11-14T10:35:27.904Z,14.27
2022-11-14T10:38:32.447Z,14.97
2022-11-14T10:41:41.911Z,14.85
2022-11-14T10:44:32.980Z,15.01
2022-11-14T10:47:24.198Z,14.94
2022-11-14T10:51:02.025Z,15.86
2022-11-14T10:53:54.093Z,15.23
2022-11-14T10:56:51.771Z,15.28
2022-11-14T10:59:37.705Z,15.18
2022-11-14T11:02:23.940Z,15.27
2022-11-14T11:05:17.118Z,15.71
2022-11-14T11:11:30.055Z,15.24
2022-11-14T11:14:19.772Z,15.49
2022-11-14T11:17:29.510Z,15.87
2022-11-14T11:20:36.422Z,15.55
2022-11-14T11:23:27.588Z,16.19
2022-11-14T11:26:32.734Z,16.14
2022-11-14T11:29:20.166Z,15.64
2022-11-14T11:32:06.885Z,15.82
2022-11-14T11:34:52.926Z,16.05
2022-11-14T11:37:55.206Z,15.86
2022-11-14T11:40:43.743Z,16.07
2022-11-14T11:44:04.671Z,17.01
2022-11-14T11:47:03.356Z,16.94
2022-11-14T11:49:54.253Z,16.92
2022-11-14T11:53:10.853Z,17.59
2022-11-14T11:56:25.900Z,17.92
2022-11-14T11:59:33.612Z,20.30
2022-11-14T12:02:27.191Z,19.00
2022-11-14T12:05:57.502Z,18.56
2022-11-14T12:09:21.955Z,18.13
2022-11-14T12:12:22.640Z,17.29
2022-11-14T12:15:32.395Z,17.28
2022-11-14T12:18:37.953Z,16.85
2022-11-14T12:21:32.324Z,15.91
2022-11-14T12:25:04.465Z,15.88
2022-11-14T12:28:24.909Z,16.91
2022-11-14T12:31:14.317Z,17.03
2022-11-14T12:34:05.899Z,17.16
2022-11-14T12:36:52.279Z,16.52
2022-11-14T12:39:38.588Z,16.58
2022-11-14T12:42:24.857Z,16.60
2022-11-14T12:45:41.254Z,16.99
2022-11-14T12:48:27.099Z,16.83
2022-11-14T12:51:25.066Z,17.14
2022-11-14T12:54:45.481Z,17.60
2022-11-14T12:57:49.139Z,17.09
2022-11-14T13:00:46.467Z,17.97
2022-11-14T13:04:08.145Z,18.15
2022-11-14T13:07:20.789Z,18.73
2022-11-14T13:10:30.581Z,19.24
2022-11-14T13:13:36.164Z,19.07
2022-11-14T13:16:45.405Z,19.00
2022-11-14T13:19:49.929Z,18.98
2022-11-14T13:22:41.038Z,19.65
2022-11-14T13:25:27.369Z,19.64
2022-11-14T13:28:52.508Z,18.81
2022-11-14T13:31:49.150Z,18.74
2022-11-14T13:34:54.064Z,19.45
2022-11-14T13:38:13.774Z,17.89
2022-11-14T13:41:27.253Z,18.26
2022-11-14T13:44:34.331Z,17.48
2022-11-14T13:47:58.266Z,18.58
2022-11-14T13:50:51.214Z,19.26
2022-11-14T13:53:39.178Z,18.53
2022-11-14T13:57:02.235Z,17.91
2022-11-14T14:00:20.875Z,18.34
2022-11-14T14:03:41.956Z,18.84
2022-11-14T14:07:10.443Z,18.86
2022-11-14T14:10:34.460Z,19.07
2022-11-14T14:13:29.147Z,18.66
2022-11-14T14:16:40.318Z,19.52
2022-11-14T14:19:53.855Z,18.94
2022-11-14T14:22:57.512Z,19.30
2022-11-14T14:26:13.257Z,18.98
2022-11-14T14:29:19.768Z,18.30
2022-11-14T14:32:19.961Z,18.63
2022-11-14T14:35:29.619Z,18.45
2022-11-14T14:38:25.969Z,18.38
2022-11-14T14:41:14.395Z,18.74
2022-11-14T14:44:00.433Z,18.83
2022-11-14T14:46:46.344Z,19.04
2022-11-14T14:49:37.111Z,18.91
2022-11-14T14:52:36.885Z,19.29
2022-11-14T14:55:35.497Z,19.16
2022-11-14T14:58:28.239Z,18.98
2022-11-14T15:01:29.061Z,18.75
2022-11-14T15:04:17.574Z,18.74
2022-11-14T15:07:04.122Z,18.57
2022-11-14T15:09:59.588Z,19.08
2022-11-14T15:12:48.627Z,18.51
2022-11-14T15:15:35.348Z,18.24
2022-11-14T15:18:30.704Z,18.71
2022-11-14T15:21:25.227Z,18.81
2022-11-14T15:24:22.086Z,18.63
2022-11-14T15:27:20.160Z,18.57
2022-11-14T15:30:20.727Z,18.67
2022-11-14T15:33:27.243Z,18.71
2022-11-14T15:36:19.382Z,18.02
2022-11-14T15:39:24.143Z,18.42
2022-11-14T15:42:19.712Z,18.54
2022-11-14T15:45:21.483Z,18.77
2022-11-14T15:48:15.794Z,18.60
2022-11-14T15:51:01.656Z,18.08
2022-11-14T15:53:49.696Z,18.63
2022-11-14T15:56:38.448Z,18.34
2022-11-14T15:59:25.017Z,18.16
2022-11-14T16:02:34.625Z,18.69
2022-11-14T16:05:27.801Z,18.50
2022-11-14T16:08:14.081Z,18.45
2022-11-14T16:10:59.596Z,18.57
2022-11-14T16:13:45.326Z,18.68
2022-11-14T16:16:31.191Z,18.50
2022-11-14T16:19:17.205Z,18.01
2022-11-14T16:22:11.130Z,18.36
2022-11-14T16:24:57.106Z,17.84
2022-11-14T16:27:43.478Z,18.43
2022-11-14T16:30:28.883Z,18.37
2022-11-14T16:33:14.738Z,18.44
2022-11-14T16:36:01.094Z,18.48
2022-11-14T16:38:51.080Z,18.31
2022-11-14T16:41:38.010Z,18.29
2022-11-14T16:44:24.853Z,18.86
2022-11-14T16:47:14.661Z,18.64
2022-11-14T16:50:02.644Z,18.66
2022-11-14T16:52:48.367Z,17.87
2022-11-14T16:55:33.785Z,18.02
2022-11-14T16:58:19.214Z,18.50
2022-11-14T17:01:10.076Z,17.97
2022-11-14T17:04:01.829Z,18.37
2022-11-14T17:06:47.895Z,18.48
2022-11-14T17:09:33.837Z,18.42
2022-11-14T17:12:20.110Z,18.45
2022-11-14T17:15:06.480Z,18.56
2022-11-14T17:17:52.172Z,18.66
2022-11-14T17:20:41.944Z,18.52
2022-11-14T17:23:27.358Z,17.97
2022-11-14T17:26:13.784Z,18.40
2022-11-14T17:28:59.645Z,17.92
2022-11-14T17:31:47.136Z,17.74
2022-11-14T17:34:33.060Z,17.95
2022-11-14T17:37:18.537Z,17.63
2022-11-14T17:40:06.861Z,18.29
2022-11-14T17:42:55.001Z,18.23
2022-11-14T17:45:41.434Z,17.61
2022-11-14T17:48:27.817Z,18.09
2022-11-14T17:51:15.787Z,18.13
2022-11-14T17:54:01.072Z,17.65
2022-11-14T17:56:50.948Z,17.89
2022-11-14T17:59:41.316Z,18.01
2022-11-14T18:02:27.243Z,17.90
2022-11-14T18:05:12.612Z,17.99
2022-11-14T18:07:58.202Z,18.04
2022-11-14T18:10:44.030Z,17.88
2022-11-14T18:13:29.853Z,18.02
2022-11-14T18:16:19.661Z,18.17
2022-11-14T18:19:05.538Z,18.19
2022-11-14T18:21:53.949Z,17.83
2022-11-14T18:24:43.312Z,17.80
2022-11-14T18:27:29.143Z,17.57
2022-11-14T18:30:39.684Z,17.59
2022-11-14T18:33:20.562Z,17.83
2022-11-14T18:36:11.716Z,18.37
2022-11-14T18:38:58.058Z,17.97
2022-11-14T18:41:43.980Z,18.39
2022-11-14T18:44:30.169Z,18.26
2022-11-14T18:47:16.029Z,18.15
2022-11-14T18:50:03.893Z,18.21
2022-11-14T18:52:49.512Z,18.16
2022-11-14T18:55:40.483Z,18.00
2022-11-14T18:58:25.959Z,18.33
2022-11-14T19:01:23.966Z,18.99
2022-11-14T19:04:11.844Z,18.92
2022-11-14T19:06:57.655Z,18.31
2022-11-14T19:09:44.532Z,17.83
2022-11-14T19:12:30.548Z,18.76
2022-11-14T19:15:16.755Z,18.70
2022-11-14T19:18:02.652Z,18.85
2022-11-14T19:21:03.484Z,19.12
2022-11-14T19:23:50.497Z,18.20
2022-11-14T19:26:36.843Z,18.35
2022-11-14T19:29:22.775Z,18.26
2022-11-14T19:32:08.579Z,19.63
2022-11-14T19:34:55.163Z,19.99
2022-11-14T19:37:41.143Z,20.40
2022-11-14T19:40:27.976Z,19.46
2022-11-14T19:43:13.499Z,20.29
2022-11-14T19:46:06.263Z,19.58
2022-11-14T19:48:59.809Z,20.29
2022-11-14T19:51:45.669Z,20.07
2022-11-14T19:54:31.425Z,20.04
2022-11-14T19:57:17.431Z,19.55
2022-11-14T20:00:04.175Z,19.26
2022-11-14T20:02:49.886Z,19.77
2022-11-14T20:05:35.557Z,18.32
2022-11-14T20:08:21.305Z,18.79
2022-11-14T20:11:06.919Z,20.04
2022-11-14T20:13:52.520Z,20.09
2022-11-14T20:16:38.550Z,18.95
2022-11-14T20:19:24.162Z,20.46
2022-11-14T20:22:10.278Z,20.96
2022-11-14T20:24:56.134Z,20.62
2022-11-14T20:27:41.837Z,20.53
2022-11-14T20:30:27.611Z,20.14
2022-11-14T20:33:14.339Z,18.76
2022-11-14T20:36:11.500Z,18.37
2022-11-14T20:38:58.478Z,17.93
2022-11-14T20:41:43.812Z,17.98
2022-11-14T20:44:29.864Z,18.08
2022-11-14T20:47:17.500Z,17.83
2022-11-14T20:50:03.537Z,18.39
2022-11-14T20:52:49.433Z,18.66
2022-11-14T20:55:35.187Z,18.27
2022-11-14T20:58:21.106Z,18.55
2022-11-14T21:01:07.324Z,18.22
2022-11-14T21:03:53.217Z,18.42
2022-11-14T21:06:38.939Z,17.78
2022-11-14T21:09:24.790Z,17.84
2022-11-14T21:12:10.597Z,17.93
2022-11-14T21:14:56.625Z,17.56
2022-11-14T21:17:42.737Z,17.43
2022-11-14T21:20:28.821Z,18.16
2022-11-14T21:23:14.880Z,18.14
2022-11-14T21:26:18.690Z,18.56
2022-11-14T21:29:13.325Z,18.06
2022-11-14T21:31:59.375Z,18.44
2022-11-14T21:34:45.386Z,19.30
2022-11-14T21:37:31.264Z,18.54
2022-11-14T21:40:17.487Z,18.63
2022-11-14T21:43:03.734Z,18.22
2022-11-14T21:46:02.596Z,18.17
2022-11-14T21:48:49.447Z,17.45
2022-11-14T21:51:34.976Z,18.31
2022-11-14T21:54:20.969Z,18.19
2022-11-14T21:57:10.308Z,18.16
2022-11-14T21:59:56.402Z,18.50
2022-11-14T22:03:00.294Z,18.54
2022-11-14T22:05:46.435Z,18.68
2022-11-14T22:08:32.333Z,18.73
2022-11-14T22:11:18.241Z,18.59
2022-11-14T22:14:04.167Z,18.74
2022-11-14T22:16:50.083Z,18.71
2022-11-14T22:19:36.137Z,18.84
2022-11-14T22:22:22.362Z,18.52
2022-11-14T22:25:09.064Z,18.54
2022-11-14T22:27:55.159Z,18.54
2022-11-14T22:30:41.275Z,18.39
2022-11-14T22:33:33.304Z,18.89
2022-11-14T22:36:23.369Z,20.21
2022-11-14T22:39:09.301Z,18.77
2022-11-14T22:41:55.075Z,18.18
2022-11-14T22:44:40.414Z,19.39
2022-11-14T22:47:26.334Z,19.63
2022-11-14T22:50:12.085Z,19.50
2022-11-14T22:52:58.021Z,19.93
2022-11-14T22:55:48.567Z,18.75
2022-11-14T22:58:37.438Z,18.48
2022-11-14T23:01:29.856Z,18.48
2022-11-14T23:04:15.527Z,18.52
2022-11-14T23:07:01.698Z,18.34
2022-11-14T23:09:48.120Z,19.70
2022-11-14T23:12:34.114Z,20.04
2022-11-14T23:15:19.928Z,20.02
2022-11-14T23:18:06.916Z,20.57
2022-11-14T23:20:52.819Z,18.66
2022-11-14T23:23:39.257Z,18.84
2022-11-14T23:26:27.513Z,18.73
2022-11-14T23:29:14.383Z,18.50
2022-11-14T23:32:00.393Z,18.67
2022-11-14T23:34:46.567Z,18.82
2022-11-14T23:37:32.669Z,20.45
2022-11-14T23:40:18.460Z,20.12
2022-11-14T23:43:04.272Z,20.26
2022-11-14T23:45:50.417Z,19.92
2022-11-14T23:48:36.331Z,20.35
2022-11-14T23:51:22.186Z,20.59
2022-11-14T23:54:08.257Z,20.66
2022-11-14T23:56:53.865Z,20.71
2022-11-14T23:59:39.311Z,19.29
